sensor_id;sensor_type;location;lat;lon;timestamp;pressure;altitude;pressure_sealevel;temperature;humidity
46714;BME280;32445;51.376;10.874;2023-09-19T00:04:23;98600.41;;;19.90;52.50
46714;BME280;32445;51.376;10.874;2023-09-19T00:09:29;98604.03;;;19.89;52.70
46714;BME280;32445;51.376;10.874;2023-09-19T00:14:30;98601.88;;;19.83;52.88
46714;BME280;32445;51.376;10.874;2023-09-19T00:19:30;98604.84;;;19.78;53.02
46714;BME280;32445;51.376;10.874;2023-09-19T00:24:30;98599.97;;;19.85;52.82
46714;BME280;32445;51.376;10.874;2023-09-19T00:29:31;98604.50;;;19.83;52.81
46714;BME280;32445;51.376;10.874;2023-09-19T00:34:31;98606.31;;;19.82;52.50
46714;BME280;32445;51.376;10.874;2023-09-19T00:39:34;98607.88;;;19.85;52.54
46714;BME280;32445;51.376;10.874;2023-09-19T00:44:34;98611.44;;;19.84;52.28
46714;BME280;32445;51.376;10.874;2023-09-19T00:49:36;98608.38;;;19.79;52.34
46714;BME280;32445;51.376;10.874;2023-09-19T00:54:38;98617.19;;;19.78;52.37
46714;BME280;32445;51.376;10.874;2023-09-19T00:59:39;98612.41;;;19.71;52.40
46714;BME280;32445;51.376;10.874;2023-09-19T01:04:40;98620.88;;;19.52;53.06
46714;BME280;32445;51.376;10.874;2023-09-19T01:09:41;98616.59;;;19.51;52.80
46714;BME280;32445;51.376;10.874;2023-09-19T01:14:54;98613.97;;;19.51;52.69
46714;BME280;32445;51.376;10.874;2023-09-19T01:20:18;98626.38;;;19.49;53.06
46714;BME280;32445;51.376;10.874;2023-09-19T01:26:30;98634.50;;;19.46;53.04
46714;BME280;32445;51.376;10.874;2023-09-19T01:31:21;98634.13;;;19.40;52.83
46714;BME280;32445;51.376;10.874;2023-09-19T01:36:23;98634.50;;;19.35;52.57
46714;BME280;32445;51.376;10.874;2023-09-19T01:46:58;98637.81;;;19.14;53.53
46714;BME280;32445;51.376;10.874;2023-09-19T01:52:05;98640.28;;;19.05;53.63
46714;BME280;32445;51.376;10.874;2023-09-19T01:57:16;98646.22;;;18.95;53.74
46714;BME280;32445;51.376;10.874;2023-09-19T02:02:17;98659.22;;;18.85;53.75
46714;BME280;32445;51.376;10.874;2023-09-19T02:07:21;98646.63;;;18.78;54.26
46714;BME280;32445;51.376;10.874;2023-09-19T02:12:22;98666.19;;;18.74;54.47
46714;BME280;32445;51.376;10.874;2023-09-19T02:17:23;98680.72;;;18.66;54.71
46714;BME280;32445;51.376;10.874;2023-09-19T02:22:26;98682.81;;;18.74;54.28
46714;BME280;32445;51.376;10.874;2023-09-19T02:27:28;98684.00;;;18.70;54.11
46714;BME280;32445;51.376;10.874;2023-09-19T02:32:28;98686.84;;;18.67;54.36
46714;BME280;32445;51.376;10.874;2023-09-19T02:37:31;98695.16;;;18.61;54.57
46714;BME280;32445;51.376;10.874;2023-09-19T02:42:32;98701.38;;;18.60;54.24
46714;BME280;32445;51.376;10.874;2023-09-19T02:47:33;98710.81;;;18.62;54.20
46714;BME280;32445;51.376;10.874;2023-09-19T02:52:35;98714.19;;;18.64;53.92
46714;BME280;32445;51.376;10.874;2023-09-19T02:57:36;98713.78;;;18.58;54.22
46714;BME280;32445;51.376;10.874;2023-09-19T03:02:40;98727.75;;;18.58;53.80
46714;BME280;32445;51.376;10.874;2023-09-19T03:07:41;98734.47;;;18.62;53.92
46714;BME280;32445;51.376;10.874;2023-09-19T03:12:43;98744.16;;;18.62;53.40
46714;BME280;32445;51.376;10.874;2023-09-19T03:17:47;98754.78;;;18.60;53.53
46714;BME280;32445;51.376;10.874;2023-09-19T03:22:48;98761.84;;;18.60;53.09
46714;BME280;32445;51.376;10.874;2023-09-19T03:27:48;98759.50;;;18.55;53.23
46714;BME280;32445;51.376;10.874;2023-09-19T03:32:49;98768.47;;;18.53;53.07
46714;BME280;32445;51.376;10.874;2023-09-19T03:37:50;98775.19;;;18.44;53.00
46714;BME280;32445;51.376;10.874;2023-09-19T03:42:52;98773.84;;;18.38;52.90
46714;BME280;32445;51.376;10.874;2023-09-19T03:47:53;98768.69;;;18.37;52.67
46714;BME280;32445;51.376;10.874;2023-09-19T03:52:56;98774.28;;;18.32;52.82
46714;BME280;32445;51.376;10.874;2023-09-19T03:57:57;98766.59;;;18.29;52.54
46714;BME280;32445;51.376;10.874;2023-09-19T04:02:58;98773.34;;;18.20;52.64
46714;BME280;32445;51.376;10.874;2023-09-19T04:07:58;98779.16;;;18.12;52.66
46714;BME280;32445;51.376;10.874;2023-09-19T04:12:58;98776.41;;;18.01;52.90
46714;BME280;32445;51.376;10.874;2023-09-19T04:17:59;98784.06;;;18.04;52.79
46714;BME280;32445;51.376;10.874;2023-09-19T04:22:59;98794.69;;;18.03;52.47
46714;BME280;32445;51.376;10.874;2023-09-19T04:28:00;98798.03;;;17.92;52.81
46714;BME280;32445;51.376;10.874;2023-09-19T04:33:00;98813.97;;;17.89;52.52
46714;BME280;32445;51.376;10.874;2023-09-19T04:38:02;98808.63;;;17.90;52.47
46714;BME280;32445;51.376;10.874;2023-09-19T04:43:03;98813.97;;;17.89;52.31
46714;BME280;32445;51.376;10.874;2023-09-19T04:48:04;98821.19;;;17.85;52.44
46714;BME280;32445;51.376;10.874;2023-09-19T04:53:04;98826.97;;;17.77;52.30
46714;BME280;32445;51.376;10.874;2023-09-19T04:58:05;98837.00;;;17.71;52.35
46714;BME280;32445;51.376;10.874;2023-09-19T05:03:05;98844.38;;;17.66;52.40
46714;BME280;32445;51.376;10.874;2023-09-19T05:08:06;98854.22;;;17.62;52.56
46714;BME280;32445;51.376;10.874;2023-09-19T05:13:08;98852.00;;;17.56;52.72
46714;BME280;32445;51.376;10.874;2023-09-19T05:18:09;98854.19;;;17.49;52.67
46714;BME280;32445;51.376;10.874;2023-09-19T05:23:10;98854.47;;;17.44;52.58
46714;BME280;32445;51.376;10.874;2023-09-19T05:28:14;98852.16;;;17.40;52.61
46714;BME280;32445;51.376;10.874;2023-09-19T05:33:15;98860.13;;;17.38;52.69
46714;BME280;32445;51.376;10.874;2023-09-19T05:38:15;98856.84;;;17.35;52.74
46714;BME280;32445;51.376;10.874;2023-09-19T05:43:19;98869.34;;;17.31;52.82
46714;BME280;32445;51.376;10.874;2023-09-19T05:48:19;98878.25;;;17.28;52.90
46714;BME280;32445;51.376;10.874;2023-09-19T05:53:21;98874.13;;;17.24;53.02
46714;BME280;32445;51.376;10.874;2023-09-19T05:58:23;98863.22;;;17.30;52.69
46714;BME280;32445;51.376;10.874;2023-09-19T06:03:23;98861.75;;;17.26;52.74
46714;BME280;32445;51.376;10.874;2023-09-19T06:08:24;98860.91;;;17.26;52.84
46714;BME280;32445;51.376;10.874;2023-09-19T06:13:29;98871.00;;;17.32;52.69
46714;BME280;32445;51.376;10.874;2023-09-19T06:18:29;98881.94;;;17.39;52.32
46714;BME280;32445;51.376;10.874;2023-09-19T06:23:34;98891.72;;;17.37;52.60
46714;BME280;32445;51.376;10.874;2023-09-19T06:28:35;98896.66;;;17.41;52.48
46714;BME280;32445;51.376;10.874;2023-09-19T06:33:38;98903.41;;;17.45;52.50
46714;BME280;32445;51.376;10.874;2023-09-19T06:38:39;98912.56;;;17.53;52.20
46714;BME280;32445;51.376;10.874;2023-09-19T06:43:41;98921.81;;;17.58;52.21
46714;BME280;32445;51.376;10.874;2023-09-19T06:48:41;98917.19;;;17.62;52.01
46714;BME280;32445;51.376;10.874;2023-09-19T06:53:44;98927.38;;;17.54;52.46
46714;BME280;32445;51.376;10.874;2023-09-19T06:58:44;98935.78;;;17.59;52.58
46714;BME280;32445;51.376;10.874;2023-09-19T07:03:45;98955.44;;;17.66;52.05
46714;BME280;32445;51.376;10.874;2023-09-19T07:08:46;98969.22;;;17.70;52.13
46714;BME280;32445;51.376;10.874;2023-09-19T07:13:46;98982.13;;;17.73;51.96
46714;BME280;32445;51.376;10.874;2023-09-19T07:18:47;98982.91;;;17.60;52.55
46714;BME280;32445;51.376;10.874;2023-09-19T07:23:48;98978.69;;;17.58;52.55
46714;BME280;32445;51.376;10.874;2023-09-19T07:28:48;98983.94;;;17.58;52.55
46714;BME280;32445;51.376;10.874;2023-09-19T07:33:49;98993.81;;;17.54;52.53
46714;BME280;32445;51.376;10.874;2023-09-19T07:38:49;98983.84;;;17.59;52.54
46714;BME280;32445;51.376;10.874;2023-09-19T07:43:50;98982.59;;;17.65;52.52
46714;BME280;32445;51.376;10.874;2023-09-19T07:48:50;99007.44;;;17.74;52.06
46714;BME280;32445;51.376;10.874;2023-09-19T07:53:50;98991.72;;;17.59;51.61
46714;BME280;32445;51.376;10.874;2023-09-19T07:58:51;99008.69;;;17.68;51.38
46714;BME280;32445;51.376;10.874;2023-09-19T08:03:52;99007.63;;;17.71;51.42
46714;BME280;32445;51.376;10.874;2023-09-19T08:08:53;99014.19;;;17.63;50.92
46714;BME280;32445;51.376;10.874;2023-09-19T08:13:54;99018.97;;;17.71;51.13
46714;BME280;32445;51.376;10.874;2023-09-19T08:18:54;99034.91;;;17.83;50.83
46714;BME280;32445;51.376;10.874;2023-09-19T08:23:55;99039.09;;;17.85;50.17
46714;BME280;32445;51.376;10.874;2023-09-19T08:28:55;99040.56;;;17.89;50.04
46714;BME280;32445;51.376;10.874;2023-09-19T08:33:56;99052.72;;;17.92;49.96
46714;BME280;32445;51.376;10.874;2023-09-19T08:38:56;99045.09;;;18.02;49.94
46714;BME280;32445;51.376;10.874;2023-09-19T08:43:59;99046.28;;;18.10;48.97
46714;BME280;32445;51.376;10.874;2023-09-19T08:49:05;99041.53;;;18.03;48.61
46714;BME280;32445;51.376;10.874;2023-09-19T08:54:12;99042.91;;;18.08;49.04
46714;BME280;32445;51.376;10.874;2023-09-19T08:59:23;99046.53;;;18.20;49.37
46714;BME280;32445;51.376;10.874;2023-09-19T09:04:24;99053.78;;;18.29;48.98
46714;BME280;32445;51.376;10.874;2023-09-19T09:09:28;99055.53;;;18.43;48.58
46714;BME280;32445;51.376;10.874;2023-09-19T09:14:29;99066.28;;;18.53;48.89
46714;BME280;32445;51.376;10.874;2023-09-19T09:19:30;99063.13;;;18.61;48.66
46714;BME280;32445;51.376;10.874;2023-09-19T09:24:31;99071.78;;;18.63;48.57
46714;BME280;32445;51.376;10.874;2023-09-19T09:29:50;99076.06;;;18.64;48.17
46714;BME280;32445;51.376;10.874;2023-09-19T09:34:53;99067.69;;;18.72;48.21
46714;BME280;32445;51.376;10.874;2023-09-19T09:39:55;99064.97;;;18.86;48.34
46714;BME280;32445;51.376;10.874;2023-09-19T09:50:35;99076.47;;;19.11;47.32
46714;BME280;32445;51.376;10.874;2023-09-19T09:56:01;99075.66;;;19.23;47.71
46714;BME280;32445;51.376;10.874;2023-09-19T10:01:12;99069.50;;;19.35;47.42
46714;BME280;32445;51.376;10.874;2023-09-19T10:06:16;99074.59;;;19.39;46.21
46714;BME280;32445;51.376;10.874;2023-09-19T10:11:26;99064.56;;;19.31;46.86
46714;BME280;32445;51.376;10.874;2023-09-19T10:16:30;99065.81;;;19.51;46.58
46714;BME280;32445;51.376;10.874;2023-09-19T10:21:33;99065.47;;;19.56;46.27
46714;BME280;32445;51.376;10.874;2023-09-19T10:26:36;99063.72;;;19.56;45.65
46714;BME280;32445;51.376;10.874;2023-09-19T10:31:39;99069.78;;;19.69;46.38
46714;BME280;32445;51.376;10.874;2023-09-19T10:36:47;99075.75;;;19.97;45.23
46714;BME280;32445;51.376;10.874;2023-09-19T10:41:53;99076.28;;;19.90;45.27
46714;BME280;32445;51.376;10.874;2023-09-19T10:46:54;99078.56;;;20.07;45.15
46714;BME280;32445;51.376;10.874;2023-09-19T10:51:57;99086.25;;;20.34;45.42
46714;BME280;32445;51.376;10.874;2023-09-19T10:57:00;99079.41;;;20.32;44.95
46714;BME280;32445;51.376;10.874;2023-09-19T11:02:17;99078.00;;;20.39;44.69
46714;BME280;32445;51.376;10.874;2023-09-19T11:07:18;99076.31;;;20.38;44.86
46714;BME280;32445;51.376;10.874;2023-09-19T11:17:43;99076.41;;;20.61;44.12
46714;BME280;32445;51.376;10.874;2023-09-19T11:43:48;99047.06;;;21.01;42.97
46714;BME280;32445;51.376;10.874;2023-09-19T11:48:51;99049.47;;;21.26;44.03
46714;BME280;32445;51.376;10.874;2023-09-19T11:53:56;99041.44;;;21.39;42.99
46714;BME280;32445;51.376;10.874;2023-09-19T11:58:58;99044.94;;;21.51;41.68
46714;BME280;32445;51.376;10.874;2023-09-19T12:04:02;99031.81;;;21.50;41.34
46714;BME280;32445;51.376;10.874;2023-09-19T12:09:04;99043.97;;;21.64;41.79
46714;BME280;32445;51.376;10.874;2023-09-19T12:14:10;99047.94;;;21.58;41.29
46714;BME280;32445;51.376;10.874;2023-09-19T12:19:20;99046.34;;;21.78;42.18
46714;BME280;32445;51.376;10.874;2023-09-19T12:24:22;99054.47;;;21.86;41.55
46714;BME280;32445;51.376;10.874;2023-09-19T12:29:22;99062.38;;;21.98;41.53
46714;BME280;32445;51.376;10.874;2023-09-19T12:39:27;99050.31;;;22.16;41.56
46714;BME280;32445;51.376;10.874;2023-09-19T12:44:30;99044.91;;;22.18;40.99
46714;BME280;32445;51.376;10.874;2023-09-19T12:49:36;99081.69;;;22.53;41.50
46714;BME280;32445;51.376;10.874;2023-09-19T12:54:39;99042.56;;;22.47;41.29
46714;BME280;32445;51.376;10.874;2023-09-19T12:59:40;99039.56;;;22.40;40.76
46714;BME280;32445;51.376;10.874;2023-09-19T13:04:52;99048.06;;;22.55;41.34
46714;BME280;32445;51.376;10.874;2023-09-19T13:10:03;99029.34;;;22.68;40.71
46714;BME280;32445;51.376;10.874;2023-09-19T13:15:11;99037.38;;;22.88;40.48
46714;BME280;32445;51.376;10.874;2023-09-19T13:20:25;99033.13;;;22.96;40.26
46714;BME280;32445;51.376;10.874;2023-09-19T13:25:29;99031.66;;;22.83;40.85
46714;BME280;32445;51.376;10.874;2023-09-19T13:30:32;99024.22;;;22.97;40.59
46714;BME280;32445;51.376;10.874;2023-09-19T13:35:38;99022.09;;;22.91;40.70
46714;BME280;32445;51.376;10.874;2023-09-19T13:40:40;99026.81;;;22.88;40.79
46714;BME280;32445;51.376;10.874;2023-09-19T13:45:41;99037.03;;;23.02;40.99
46714;BME280;32445;51.376;10.874;2023-09-19T13:50:42;99024.34;;;22.96;40.34
46714;BME280;32445;51.376;10.874;2023-09-19T13:55:43;99033.03;;;22.77;40.90
46714;BME280;32445;51.376;10.874;2023-09-19T14:00:43;99029.34;;;22.68;41.08
46714;BME280;32445;51.376;10.874;2023-09-19T14:05:44;99021.91;;;22.62;40.44
46714;BME280;32445;51.376;10.874;2023-09-19T14:10:44;99016.22;;;22.67;40.66
46714;BME280;32445;51.376;10.874;2023-09-19T14:15:45;99018.84;;;22.88;40.74
46714;BME280;32445;51.376;10.874;2023-09-19T14:20:45;99018.16;;;22.86;40.24
46714;BME280;32445;51.376;10.874;2023-09-19T14:25:46;99015.72;;;22.94;40.16
46714;BME280;32445;51.376;10.874;2023-09-19T14:30:46;99020.47;;;22.79;39.57
46714;BME280;32445;51.376;10.874;2023-09-19T14:35:49;99001.50;;;22.95;39.42
46714;BME280;32445;51.376;10.874;2023-09-19T14:41:02;99015.94;;;23.12;39.73
46714;BME280;32445;51.376;10.874;2023-09-19T14:46:03;99001.75;;;22.92;38.71
46714;BME280;32445;51.376;10.874;2023-09-19T14:51:05;98993.31;;;23.08;39.58
46714;BME280;32445;51.376;10.874;2023-09-19T14:56:08;98988.56;;;23.32;39.93
46714;BME280;32445;51.376;10.874;2023-09-19T15:01:10;98990.44;;;23.42;39.34
46714;BME280;32445;51.376;10.874;2023-09-19T15:06:12;98994.91;;;23.41;39.56
46714;BME280;32445;51.376;10.874;2023-09-19T15:11:17;98998.91;;;23.36;39.11
46714;BME280;32445;51.376;10.874;2023-09-19T15:16:17;99007.28;;;23.10;38.78
46714;BME280;32445;51.376;10.874;2023-09-19T15:21:18;98992.72;;;22.94;39.35
46714;BME280;32445;51.376;10.874;2023-09-19T15:26:22;98992.25;;;22.89;39.33
46714;BME280;32445;51.376;10.874;2023-09-19T15:31:28;99003.13;;;22.86;39.60
46714;BME280;32445;51.376;10.874;2023-09-19T15:36:28;99000.28;;;22.78;39.91
46714;BME280;32445;51.376;10.874;2023-09-19T15:46:33;99004.75;;;22.77;39.23
46714;BME280;32445;51.376;10.874;2023-09-19T15:51:35;99002.22;;;22.55;40.01
46714;BME280;32445;51.376;10.874;2023-09-19T15:56:41;99011.72;;;22.57;40.29
46714;BME280;32445;51.376;10.874;2023-09-19T16:01:42;99013.06;;;22.52;39.76
46714;BME280;32445;51.376;10.874;2023-09-19T16:06:43;99003.91;;;22.35;39.19
46714;BME280;32445;51.376;10.874;2023-09-19T16:11:44;99001.75;;;22.28;40.19
46714;BME280;32445;51.376;10.874;2023-09-19T16:16:44;99001.13;;;22.36;40.10
46714;BME280;32445;51.376;10.874;2023-09-19T16:21:44;99014.13;;;22.28;39.64
46714;BME280;32445;51.376;10.874;2023-09-19T16:26:45;99014.94;;;22.40;40.05
46714;BME280;32445;51.376;10.874;2023-09-19T16:31:45;99001.44;;;22.10;39.86
46714;BME280;32445;51.376;10.874;2023-09-19T16:36:46;99000.31;;;22.24;39.55
46714;BME280;32445;51.376;10.874;2023-09-19T16:41:46;99011.72;;;22.25;40.04
46714;BME280;32445;51.376;10.874;2023-09-19T16:46:47;99010.34;;;22.09;40.06
46714;BME280;32445;51.376;10.874;2023-09-19T16:51:47;98999.91;;;22.08;39.81
46714;BME280;32445;51.376;10.874;2023-09-19T16:56:48;98994.72;;;22.06;40.05
46714;BME280;32445;51.376;10.874;2023-09-19T17:01:48;98988.41;;;21.98;39.88
46714;BME280;32445;51.376;10.874;2023-09-19T17:06:49;98999.38;;;21.82;40.24
46714;BME280;32445;51.376;10.874;2023-09-19T17:11:49;99001.44;;;21.78;40.44
46714;BME280;32445;51.376;10.874;2023-09-19T17:16:50;98998.56;;;21.70;40.25
46714;BME280;32445;51.376;10.874;2023-09-19T17:21:50;99002.28;;;21.67;40.17
46714;BME280;32445;51.376;10.874;2023-09-19T17:26:51;99012.50;;;21.60;39.98
46714;BME280;32445;51.376;10.874;2023-09-19T17:31:51;99010.47;;;21.41;40.31
46714;BME280;32445;51.376;10.874;2023-09-19T17:36:51;99007.44;;;21.46;40.42
46714;BME280;32445;51.376;10.874;2023-09-19T17:41:52;99016.22;;;21.47;39.90
46714;BME280;32445;51.376;10.874;2023-09-19T17:46:52;99019.25;;;21.42;40.12
46714;BME280;32445;51.376;10.874;2023-09-19T17:51:53;99017.06;;;21.36;39.94
46714;BME280;32445;51.376;10.874;2023-09-19T17:56:53;99020.31;;;21.28;40.21
46714;BME280;32445;51.376;10.874;2023-09-19T18:02:06;99030.75;;;21.18;40.17
46714;BME280;32445;51.376;10.874;2023-09-19T18:07:16;99034.22;;;21.07;40.04
46714;BME280;32445;51.376;10.874;2023-09-19T18:12:17;99029.78;;;20.97;40.25
46714;BME280;32445;51.376;10.874;2023-09-19T18:17:18;99049.06;;;20.86;40.41
46714;BME280;32445;51.376;10.874;2023-09-19T18:22:18;99051.66;;;20.74;40.31
46714;BME280;32445;51.376;10.874;2023-09-19T18:27:18;99048.88;;;20.65;40.70
46714;BME280;32445;51.376;10.874;2023-09-19T18:32:20;99059.38;;;20.53;40.49
46714;BME280;32445;51.376;10.874;2023-09-19T18:37:20;99053.19;;;20.42;40.68
46714;BME280;32445;51.376;10.874;2023-09-19T18:42:21;99057.47;;;20.31;40.73
46714;BME280;32445;51.376;10.874;2023-09-19T18:47:21;99067.84;;;20.21;40.91
46714;BME280;32445;51.376;10.874;2023-09-19T18:52:23;99059.78;;;20.12;40.77
46714;BME280;32445;51.376;10.874;2023-09-19T18:57:23;99066.78;;;20.00;41.04
46714;BME280;32445;51.376;10.874;2023-09-19T19:02:24;99063.13;;;19.90;41.04
46714;BME280;32445;51.376;10.874;2023-09-19T19:07:25;99070.84;;;19.80;41.03
46714;BME280;32445;51.376;10.874;2023-09-19T19:12:25;99071.59;;;19.69;41.40
46714;BME280;32445;51.376;10.874;2023-09-19T19:17:29;99057.41;;;19.59;41.32
46714;BME280;32445;51.376;10.874;2023-09-19T19:22:30;99067.72;;;19.49;41.42
46714;BME280;32445;51.376;10.874;2023-09-19T19:27:32;99061.31;;;19.40;41.34
46714;BME280;32445;51.376;10.874;2023-09-19T19:32:32;99069.72;;;19.32;41.40
46714;BME280;32445;51.376;10.874;2023-09-19T19:37:33;99065.94;;;19.24;41.60
46714;BME280;32445;51.376;10.874;2023-09-19T19:42:33;99074.38;;;19.16;41.66
46714;BME280;32445;51.376;10.874;2023-09-19T19:47:34;99060.19;;;19.06;42.00
46714;BME280;32445;51.376;10.874;2023-09-19T19:52:34;99066.06;;;18.96;41.65
46714;BME280;32445;51.376;10.874;2023-09-19T19:57:35;99066.59;;;18.89;41.83
46714;BME280;32445;51.376;10.874;2023-09-19T20:02:36;99068.75;;;18.82;41.79
46714;BME280;32445;51.376;10.874;2023-09-19T20:07:36;99075.38;;;18.75;41.90
46714;BME280;32445;51.376;10.874;2023-09-19T20:12:39;99070.53;;;18.68;41.91
46714;BME280;32445;51.376;10.874;2023-09-19T20:17:40;99075.53;;;18.59;41.91
46714;BME280;32445;51.376;10.874;2023-09-19T20:22:42;99073.59;;;18.48;42.16
46714;BME280;32445;51.376;10.874;2023-09-19T20:27:42;99068.53;;;18.32;42.39
46714;BME280;32445;51.376;10.874;2023-09-19T20:32:43;99077.22;;;18.20;42.29
46714;BME280;32445;51.376;10.874;2023-09-19T20:37:46;99074.72;;;18.04;42.66
46714;BME280;32445;51.376;10.874;2023-09-19T20:42:50;99072.94;;;17.90;43.05
46714;BME280;32445;51.376;10.874;2023-09-19T20:47:54;99076.34;;;17.77;43.21
46714;BME280;32445;51.376;10.874;2023-09-19T20:52:54;99070.81;;;17.68;43.41
46714;BME280;32445;51.376;10.874;2023-09-19T20:57:54;99066.53;;;17.67;43.20
46714;BME280;32445;51.376;10.874;2023-09-19T21:02:55;99066.97;;;17.73;43.15
46714;BME280;32445;51.376;10.874;2023-09-19T21:07:55;99066.66;;;17.78;42.91
46714;BME280;32445;51.376;10.874;2023-09-19T21:12:56;99078.66;;;17.82;42.82
46714;BME280;32445;51.376;10.874;2023-09-19T21:17:56;99067.97;;;17.85;42.68
46714;BME280;32445;51.376;10.874;2023-09-19T21:22:56;99066.41;;;17.83;42.69
46714;BME280;32445;51.376;10.874;2023-09-19T21:27:57;99073.06;;;17.88;42.66
46714;BME280;32445;51.376;10.874;2023-09-19T21:32:57;99069.47;;;17.89;42.42
46714;BME280;32445;51.376;10.874;2023-09-19T21:37:57;99073.88;;;17.89;42.48
46714;BME280;32445;51.376;10.874;2023-09-19T21:42:58;99064.50;;;17.85;42.56
46714;BME280;32445;51.376;10.874;2023-09-19T21:47:58;99065.63;;;17.80;42.52
46714;BME280;32445;51.376;10.874;2023-09-19T21:52:58;99065.09;;;17.75;42.72
46714;BME280;32445;51.376;10.874;2023-09-19T21:57:59;99061.91;;;17.70;42.61
46714;BME280;32445;51.376;10.874;2023-09-19T22:03:03;99062.19;;;17.66;42.80
46714;BME280;32445;51.376;10.874;2023-09-19T22:08:04;99054.63;;;17.61;42.67
46714;BME280;32445;51.376;10.874;2023-09-19T22:13:04;99058.47;;;17.55;42.45
46714;BME280;32445;51.376;10.874;2023-09-19T22:18:06;99052.75;;;17.49;42.79
46714;BME280;32445;51.376;10.874;2023-09-19T22:23:06;99044.41;;;17.42;42.93
46714;BME280;32445;51.376;10.874;2023-09-19T22:28:12;99043.88;;;17.37;43.10
46714;BME280;32445;51.376;10.874;2023-09-19T22:33:16;99026.72;;;17.31;43.24
46714;BME280;32445;51.376;10.874;2023-09-19T22:38:18;99038.44;;;17.25;43.33
46714;BME280;32445;51.376;10.874;2023-09-19T22:43:19;99037.88;;;17.20;43.23
46714;BME280;32445;51.376;10.874;2023-09-19T22:48:21;99031.22;;;17.15;43.29
46714;BME280;32445;51.376;10.874;2023-09-19T22:53:26;99035.81;;;17.11;43.44
46714;BME280;32445;51.376;10.874;2023-09-19T22:58:27;99033.72;;;17.02;43.51
46714;BME280;32445;51.376;10.874;2023-09-19T23:03:29;99031.28;;;16.99;43.69
46714;BME280;32445;51.376;10.874;2023-09-19T23:08:31;99031.50;;;16.95;43.57
46714;BME280;32445;51.376;10.874;2023-09-19T23:13:33;99020.41;;;16.90;43.54
46714;BME280;32445;51.376;10.874;2023-09-19T23:18:34;99027.59;;;16.87;43.71
46714;BME280;32445;51.376;10.874;2023-09-19T23:23:36;99024.50;;;16.80;43.74
46714;BME280;32445;51.376;10.874;2023-09-19T23:28:39;99017.66;;;16.77;43.93
46714;BME280;32445;51.376;10.874;2023-09-19T23:33:48;99019.81;;;16.71;43.99
46714;BME280;32445;51.376;10.874;2023-09-19T23:38:50;99030.63;;;16.65;44.33
46714;BME280;32445;51.376;10.874;2023-09-19T23:43:51;99035.66;;;16.53;44.43
46714;BME280;32445;51.376;10.874;2023-09-19T23:48:53;99037.44;;;16.53;44.66
46714;BME280;32445;51.376;10.874;2023-09-19T23:53:54;99042.38;;;16.43;44.87
46714;BME280;32445;51.376;10.874;2023-09-19T23:58:54;99041.34;;;16.46;44.73
